sensor_id;sensor_type;location;lat;lon;timestamp;P1;durP1;ratioP1;P2;durP2;ratioP2
15112;SDS011;7657;50.140;7.076;2022-07-24T00:00:29;6.88;;;5.07;;
15112;SDS011;7657;50.140;7.076;2022-07-24T00:02:56;4.93;;;4.43;;
15112;SDS011;7657;50.140;7.076;2022-07-24T00:05:23;5.60;;;4.53;;
15112;SDS011;7657;50.140;7.076;2022-07-24T00:07:50;6.80;;;4.95;;
15112;SDS011;7657;50.140;7.076;2022-07-24T00:10:16;5.30;;;4.75;;
15112;SDS011;7657;50.140;7.076;2022-07-24T00:12:43;5.40;;;4.30;;
15112;SDS011;7657;50.140;7.076;2022-07-24T00:15:10;5.15;;;4.40;;
15112;SDS011;7657;50.140;7.076;2022-07-24T00:17:39;5.93;;;4.82;;
15112;SDS011;7657;50.140;7.076;2022-07-24T00:20:06;9.88;;;4.93;;
15112;SDS011;7657;50.140;7.076;2022-07-24T00:22:34;5.47;;;4.95;;
15112;SDS011;7657;50.140;7.076;2022-07-24T00:25:01;6.70;;;4.90;;
15112;SDS011;7657;50.140;7.076;2022-07-24T00:27:28;7.25;;;5.38;;
15112;SDS011;7657;50.140;7.076;2022-07-24T00:29:55;5.72;;;4.70;;
15112;SDS011;7657;50.140;7.076;2022-07-24T00:32:23;5.50;;;4.70;;
15112;SDS011;7657;50.140;7.076;2022-07-24T00:34:51;7.47;;;5.13;;
15112;SDS011;7657;50.140;7.076;2022-07-24T00:37:18;5.68;;;4.88;;
15112;SDS011;7657;50.140;7.076;2022-07-24T00:39:45;6.32;;;4.90;;
15112;SDS011;7657;50.140;7.076;2022-07-24T00:42:12;5.75;;;5.13;;
15112;SDS011;7657;50.140;7.076;2022-07-24T00:44:39;6.07;;;4.90;;
15112;SDS011;7657;50.140;7.076;2022-07-24T00:47:06;5.70;;;4.90;;
15112;SDS011;7657;50.140;7.076;2022-07-24T00:49:33;6.18;;;4.85;;
15112;SDS011;7657;50.140;7.076;2022-07-24T00:52:02;5.82;;;4.70;;
15112;SDS011;7657;50.140;7.076;2022-07-24T00:54:29;5.47;;;4.50;;
15112;SDS011;7657;50.140;7.076;2022-07-24T00:56:56;6.32;;;5.10;;
15112;SDS011;7657;50.140;7.076;2022-07-24T00:59:23;5.40;;;4.90;;
15112;SDS011;7657;50.140;7.076;2022-07-24T01:01:50;8.48;;;5.15;;
15112;SDS011;7657;50.140;7.076;2022-07-24T01:04:17;6.57;;;5.05;;
15112;SDS011;7657;50.140;7.076;2022-07-24T01:06:46;5.85;;;5.05;;
15112;SDS011;7657;50.140;7.076;2022-07-24T01:09:15;7.07;;;5.15;;
15112;SDS011;7657;50.140;7.076;2022-07-24T01:11:42;5.78;;;5.18;;
15112;SDS011;7657;50.140;7.076;2022-07-24T01:14:09;6.55;;;4.88;;
15112;SDS011;7657;50.140;7.076;2022-07-24T01:16:37;5.75;;;5.00;;
15112;SDS011;7657;50.140;7.076;2022-07-24T01:19:04;7.53;;;5.25;;
15112;SDS011;7657;50.140;7.076;2022-07-24T01:21:33;6.25;;;5.00;;
15112;SDS011;7657;50.140;7.076;2022-07-24T01:24:00;6.45;;;5.25;;
15112;SDS011;7657;50.140;7.076;2022-07-24T01:26:27;6.07;;;5.25;;
15112;SDS011;7657;50.140;7.076;2022-07-24T01:28:54;5.60;;;5.00;;
15112;SDS011;7657;50.140;7.076;2022-07-24T01:31:21;6.18;;;5.40;;
15112;SDS011;7657;50.140;7.076;2022-07-24T01:33:48;6.43;;;5.07;;
15112;SDS011;7657;50.140;7.076;2022-07-24T01:36:15;6.13;;;5.05;;
15112;SDS011;7657;50.140;7.076;2022-07-24T01:38:43;6.82;;;5.20;;
15112;SDS011;7657;50.140;7.076;2022-07-24T01:41:10;6.18;;;4.82;;
15112;SDS011;7657;50.140;7.076;2022-07-24T01:43:37;6.53;;;5.28;;
15112;SDS011;7657;50.140;7.076;2022-07-24T01:46:04;5.40;;;4.90;;
15112;SDS011;7657;50.140;7.076;2022-07-24T01:48:31;7.30;;;4.93;;
15112;SDS011;7657;50.140;7.076;2022-07-24T01:50:58;6.90;;;5.05;;
15112;SDS011;7657;50.140;7.076;2022-07-24T01:53:25;5.63;;;4.75;;
15112;SDS011;7657;50.140;7.076;2022-07-24T01:55:53;7.15;;;5.22;;
15112;SDS011;7657;50.140;7.076;2022-07-24T01:58:20;5.28;;;4.65;;
15112;SDS011;7657;50.140;7.076;2022-07-24T02:00:47;7.55;;;4.88;;
15112;SDS011;7657;50.140;7.076;2022-07-24T02:03:15;6.28;;;5.55;;
15112;SDS011;7657;50.140;7.076;2022-07-24T02:05:42;6.35;;;4.68;;
15112;SDS011;7657;50.140;7.076;2022-07-24T02:08:09;6.55;;;5.45;;
15112;SDS011;7657;50.140;7.076;2022-07-24T02:10:36;6.47;;;5.28;;
15112;SDS011;7657;50.140;7.076;2022-07-24T02:13:04;5.43;;;4.75;;
15112;SDS011;7657;50.140;7.076;2022-07-24T02:15:31;5.50;;;4.80;;
15112;SDS011;7657;50.140;7.076;2022-07-24T02:17:59;5.80;;;5.18;;
15112;SDS011;7657;50.140;7.076;2022-07-24T02:20:27;6.75;;;4.93;;
15112;SDS011;7657;50.140;7.076;2022-07-24T02:22:54;5.53;;;4.63;;
15112;SDS011;7657;50.140;7.076;2022-07-24T02:25:21;6.78;;;5.40;;
15112;SDS011;7657;50.140;7.076;2022-07-24T02:27:48;5.18;;;4.60;;
15112;SDS011;7657;50.140;7.076;2022-07-24T02:30:20;6.13;;;5.10;;
15112;SDS011;7657;50.140;7.076;2022-07-24T02:32:49;6.43;;;5.32;;
15112;SDS011;7657;50.140;7.076;2022-07-24T02:35:16;6.45;;;5.28;;
15112;SDS011;7657;50.140;7.076;2022-07-24T02:37:43;7.07;;;5.13;;
15112;SDS011;7657;50.140;7.076;2022-07-24T02:40:12;6.10;;;5.50;;
15112;SDS011;7657;50.140;7.076;2022-07-24T02:42:40;6.35;;;5.05;;
15112;SDS011;7657;50.140;7.076;2022-07-24T02:45:07;5.97;;;5.38;;
15112;SDS011;7657;50.140;7.076;2022-07-24T02:47:38;6.55;;;5.78;;
15112;SDS011;7657;50.140;7.076;2022-07-24T02:50:12;7.50;;;5.78;;
15112;SDS011;7657;50.140;7.076;2022-07-24T02:52:40;6.68;;;4.93;;
15112;SDS011;7657;50.140;7.076;2022-07-24T02:55:07;6.32;;;5.03;;
15112;SDS011;7657;50.140;7.076;2022-07-24T02:57:34;7.10;;;5.18;;
15112;SDS011;7657;50.140;7.076;2022-07-24T03:00:02;6.95;;;4.97;;
15112;SDS011;7657;50.140;7.076;2022-07-24T03:02:29;7.38;;;5.57;;
15112;SDS011;7657;50.140;7.076;2022-07-24T03:04:58;7.43;;;5.20;;
15112;SDS011;7657;50.140;7.076;2022-07-24T03:07:25;9.90;;;5.82;;
15112;SDS011;7657;50.140;7.076;2022-07-24T03:09:53;6.35;;;5.40;;
15112;SDS011;7657;50.140;7.076;2022-07-24T03:12:20;6.40;;;5.68;;
15112;SDS011;7657;50.140;7.076;2022-07-24T03:14:47;7.70;;;5.22;;
15112;SDS011;7657;50.140;7.076;2022-07-24T03:17:14;6.47;;;5.07;;
15112;SDS011;7657;50.140;7.076;2022-07-24T03:19:41;6.22;;;5.53;;
15112;SDS011;7657;50.140;7.076;2022-07-24T03:22:09;7.07;;;5.47;;
15112;SDS011;7657;50.140;7.076;2022-07-24T03:24:36;6.07;;;5.22;;
15112;SDS011;7657;50.140;7.076;2022-07-24T03:27:03;6.78;;;5.30;;
15112;SDS011;7657;50.140;7.076;2022-07-24T03:29:30;6.93;;;5.18;;
15112;SDS011;7657;50.140;7.076;2022-07-24T03:31:57;5.72;;;5.15;;
15112;SDS011;7657;50.140;7.076;2022-07-24T03:34:24;7.00;;;5.50;;
15112;SDS011;7657;50.140;7.076;2022-07-24T03:36:51;6.88;;;5.35;;
15112;SDS011;7657;50.140;7.076;2022-07-24T03:39:19;7.32;;;5.57;;
15112;SDS011;7657;50.140;7.076;2022-07-24T03:41:46;6.50;;;5.90;;
15112;SDS011;7657;50.140;7.076;2022-07-24T03:44:13;7.90;;;5.63;;
15112;SDS011;7657;50.140;7.076;2022-07-24T03:46:40;7.93;;;5.80;;
15112;SDS011;7657;50.140;7.076;2022-07-24T03:49:07;6.82;;;5.32;;
15112;SDS011;7657;50.140;7.076;2022-07-24T03:51:34;6.32;;;5.72;;
15112;SDS011;7657;50.140;7.076;2022-07-24T03:54:01;6.78;;;5.72;;
15112;SDS011;7657;50.140;7.076;2022-07-24T03:56:29;8.57;;;5.55;;
15112;SDS011;7657;50.140;7.076;2022-07-24T03:58:56;5.80;;;5.22;;
15112;SDS011;7657;50.140;7.076;2022-07-24T04:01:23;6.63;;;5.90;;
15112;SDS011;7657;50.140;7.076;2022-07-24T04:03:50;6.03;;;5.07;;
15112;SDS011;7657;50.140;7.076;2022-07-24T04:06:17;7.22;;;6.15;;
15112;SDS011;7657;50.140;7.076;2022-07-24T04:08:44;6.45;;;5.63;;
15112;SDS011;7657;50.140;7.076;2022-07-24T04:11:12;7.10;;;5.70;;
15112;SDS011;7657;50.140;7.076;2022-07-24T04:13:40;7.93;;;5.63;;
15112;SDS011;7657;50.140;7.076;2022-07-24T04:16:07;6.38;;;5.72;;
15112;SDS011;7657;50.140;7.076;2022-07-24T04:18:34;6.28;;;5.20;;
15112;SDS011;7657;50.140;7.076;2022-07-24T04:21:01;6.90;;;5.63;;
15112;SDS011;7657;50.140;7.076;2022-07-24T04:23:28;6.90;;;5.75;;
15112;SDS011;7657;50.140;7.076;2022-07-24T04:25:55;5.82;;;5.30;;
15112;SDS011;7657;50.140;7.076;2022-07-24T04:28:22;6.97;;;6.18;;
15112;SDS011;7657;50.140;7.076;2022-07-24T04:30:50;6.00;;;5.40;;
15112;SDS011;7657;50.140;7.076;2022-07-24T04:33:17;6.15;;;5.00;;
15112;SDS011;7657;50.140;7.076;2022-07-24T04:35:44;6.20;;;5.60;;
15112;SDS011;7657;50.140;7.076;2022-07-24T04:38:11;6.35;;;5.70;;
15112;SDS011;7657;50.140;7.076;2022-07-24T04:40:38;6.13;;;5.55;;
15112;SDS011;7657;50.140;7.076;2022-07-24T04:43:05;6.45;;;5.75;;
15112;SDS011;7657;50.140;7.076;2022-07-24T04:45:33;6.82;;;5.35;;
15112;SDS011;7657;50.140;7.076;2022-07-24T04:48:01;5.75;;;5.07;;
15112;SDS011;7657;50.140;7.076;2022-07-24T04:50:28;5.75;;;5.25;;
15112;SDS011;7657;50.140;7.076;2022-07-24T04:52:55;6.03;;;5.45;;
15112;SDS011;7657;50.140;7.076;2022-07-24T04:55:23;7.13;;;5.38;;
15112;SDS011;7657;50.140;7.076;2022-07-24T04:57:50;6.63;;;5.18;;
15112;SDS011;7657;50.140;7.076;2022-07-24T05:00:17;6.13;;;5.53;;
15112;SDS011;7657;50.140;7.076;2022-07-24T05:02:44;8.55;;;5.55;;
15112;SDS011;7657;50.140;7.076;2022-07-24T05:05:12;6.10;;;5.22;;
15112;SDS011;7657;50.140;7.076;2022-07-24T05:07:39;6.80;;;5.18;;
15112;SDS011;7657;50.140;7.076;2022-07-24T05:10:07;6.40;;;5.07;;
15112;SDS011;7657;50.140;7.076;2022-07-24T05:12:34;6.78;;;5.60;;
15112;SDS011;7657;50.140;7.076;2022-07-24T05:15:01;6.57;;;5.07;;
15112;SDS011;7657;50.140;7.076;2022-07-24T05:17:28;7.07;;;5.55;;
15112;SDS011;7657;50.140;7.076;2022-07-24T05:19:55;6.22;;;5.20;;
15112;SDS011;7657;50.140;7.076;2022-07-24T05:22:24;6.00;;;5.38;;
15112;SDS011;7657;50.140;7.076;2022-07-24T05:24:51;7.65;;;5.70;;
15112;SDS011;7657;50.140;7.076;2022-07-24T05:27:17;6.82;;;5.35;;
15112;SDS011;7657;50.140;7.076;2022-07-24T05:29:45;6.05;;;5.43;;
15112;SDS011;7657;50.140;7.076;2022-07-24T05:32:12;6.88;;;5.55;;
15112;SDS011;7657;50.140;7.076;2022-07-24T05:34:39;7.28;;;5.60;;
15112;SDS011;7657;50.140;7.076;2022-07-24T05:37:07;9.25;;;5.82;;
15112;SDS011;7657;50.140;7.076;2022-07-24T05:39:35;6.45;;;5.57;;
15112;SDS011;7657;50.140;7.076;2022-07-24T05:42:02;6.25;;;5.63;;
15112;SDS011;7657;50.140;7.076;2022-07-24T05:44:30;6.32;;;5.43;;
15112;SDS011;7657;50.140;7.076;2022-07-24T05:46:57;7.30;;;5.10;;
15112;SDS011;7657;50.140;7.076;2022-07-24T05:49:24;9.65;;;6.00;;
15112;SDS011;7657;50.140;7.076;2022-07-24T05:51:51;5.75;;;5.15;;
15112;SDS011;7657;50.140;7.076;2022-07-24T05:54:18;7.03;;;5.70;;
15112;SDS011;7657;50.140;7.076;2022-07-24T05:56:46;6.25;;;5.28;;
15112;SDS011;7657;50.140;7.076;2022-07-24T05:59:13;7.13;;;5.55;;
15112;SDS011;7657;50.140;7.076;2022-07-24T06:01:40;6.22;;;5.07;;
15112;SDS011;7657;50.140;7.076;2022-07-24T06:04:07;5.65;;;5.05;;
15112;SDS011;7657;50.140;7.076;2022-07-24T06:06:34;5.97;;;4.80;;
15112;SDS011;7657;50.140;7.076;2022-07-24T06:09:01;5.57;;;4.95;;
15112;SDS011;7657;50.140;7.076;2022-07-24T06:11:29;5.75;;;5.25;;
15112;SDS011;7657;50.140;7.076;2022-07-24T06:13:57;5.07;;;4.63;;
15112;SDS011;7657;50.140;7.076;2022-07-24T06:16:24;7.05;;;5.93;;
15112;SDS011;7657;50.140;7.076;2022-07-24T06:18:51;5.55;;;5.05;;
15112;SDS011;7657;50.140;7.076;2022-07-24T06:21:18;5.40;;;4.80;;
15112;SDS011;7657;50.140;7.076;2022-07-24T06:23:45;5.68;;;5.18;;
15112;SDS011;7657;50.140;7.076;2022-07-24T06:26:12;5.03;;;4.53;;
15112;SDS011;7657;50.140;7.076;2022-07-24T06:28:39;5.13;;;4.63;;
15112;SDS011;7657;50.140;7.076;2022-07-24T06:31:07;5.30;;;4.78;;
15112;SDS011;7657;50.140;7.076;2022-07-24T06:33:34;5.55;;;4.60;;
15112;SDS011;7657;50.140;7.076;2022-07-24T06:36:01;4.88;;;4.38;;
15112;SDS011;7657;50.140;7.076;2022-07-24T06:38:28;4.90;;;4.50;;
15112;SDS011;7657;50.140;7.076;2022-07-24T06:40:55;5.22;;;4.60;;
15112;SDS011;7657;50.140;7.076;2022-07-24T06:43:22;4.80;;;4.18;;
15112;SDS011;7657;50.140;7.076;2022-07-24T06:45:49;4.88;;;4.28;;
15112;SDS011;7657;50.140;7.076;2022-07-24T06:48:17;5.25;;;4.45;;
15112;SDS011;7657;50.140;7.076;2022-07-24T06:50:44;6.32;;;4.32;;
15112;SDS011;7657;50.140;7.076;2022-07-24T06:53:12;7.15;;;4.25;;
15112;SDS011;7657;50.140;7.076;2022-07-24T06:55:39;4.32;;;3.92;;
15112;SDS011;7657;50.140;7.076;2022-07-24T06:58:06;5.00;;;4.47;;
15112;SDS011;7657;50.140;7.076;2022-07-24T07:00:33;5.22;;;4.15;;
15112;SDS011;7657;50.140;7.076;2022-07-24T07:03:00;5.82;;;4.40;;
15112;SDS011;7657;50.140;7.076;2022-07-24T07:05:28;4.93;;;4.43;;
15112;SDS011;7657;50.140;7.076;2022-07-24T07:07:55;6.80;;;4.88;;
15112;SDS011;7657;50.140;7.076;2022-07-24T07:10:22;7.13;;;4.30;;
15112;SDS011;7657;50.140;7.076;2022-07-24T07:12:50;5.70;;;4.00;;
15112;SDS011;7657;50.140;7.076;2022-07-24T07:15:17;5.05;;;4.55;;
15112;SDS011;7657;50.140;7.076;2022-07-24T07:17:44;4.90;;;4.50;;
15112;SDS011;7657;50.140;7.076;2022-07-24T07:20:11;5.22;;;4.30;;
15112;SDS011;7657;50.140;7.076;2022-07-24T07:22:40;7.30;;;4.80;;
15112;SDS011;7657;50.140;7.076;2022-07-24T07:25:08;5.18;;;4.47;;
15112;SDS011;7657;50.140;7.076;2022-07-24T07:27:35;4.07;;;3.75;;
15112;SDS011;7657;50.140;7.076;2022-07-24T07:30:04;5.22;;;4.72;;
15112;SDS011;7657;50.140;7.076;2022-07-24T07:32:32;4.65;;;4.15;;
15112;SDS011;7657;50.140;7.076;2022-07-24T07:35:00;5.30;;;4.38;;
15112;SDS011;7657;50.140;7.076;2022-07-24T07:37:26;5.13;;;4.22;;
15112;SDS011;7657;50.140;7.076;2022-07-24T07:39:55;4.13;;;3.67;;
15112;SDS011;7657;50.140;7.076;2022-07-24T07:42:22;6.15;;;3.72;;
15112;SDS011;7657;50.140;7.076;2022-07-24T07:44:49;5.57;;;3.80;;
15112;SDS011;7657;50.140;7.076;2022-07-24T07:47:16;4.45;;;3.92;;
15112;SDS011;7657;50.140;7.076;2022-07-24T07:49:43;4.30;;;3.90;;
15112;SDS011;7657;50.140;7.076;2022-07-24T07:52:10;5.13;;;3.45;;
15112;SDS011;7657;50.140;7.076;2022-07-24T07:54:37;5.05;;;3.75;;
15112;SDS011;7657;50.140;7.076;2022-07-24T07:57:06;5.30;;;3.85;;
15112;SDS011;7657;50.140;7.076;2022-07-24T07:59:33;5.47;;;3.47;;
15112;SDS011;7657;50.140;7.076;2022-07-24T08:02:00;4.53;;;3.80;;
15112;SDS011;7657;50.140;7.076;2022-07-24T08:04:26;4.25;;;3.85;;
15112;SDS011;7657;50.140;7.076;2022-07-24T08:06:53;5.55;;;3.60;;
15112;SDS011;7657;50.140;7.076;2022-07-24T08:09:20;4.20;;;3.80;;
15112;SDS011;7657;50.140;7.076;2022-07-24T08:11:47;4.10;;;3.70;;
15112;SDS011;7657;50.140;7.076;2022-07-24T08:14:16;4.50;;;4.10;;
15112;SDS011;7657;50.140;7.076;2022-07-24T08:16:43;5.28;;;3.95;;
15112;SDS011;7657;50.140;7.076;2022-07-24T08:19:10;4.70;;;4.25;;
15112;SDS011;7657;50.140;7.076;2022-07-24T08:21:37;6.03;;;3.90;;
15112;SDS011;7657;50.140;7.076;2022-07-24T08:24:04;4.15;;;3.85;;
15112;SDS011;7657;50.140;7.076;2022-07-24T08:26:32;4.93;;;3.85;;
15112;SDS011;7657;50.140;7.076;2022-07-24T08:28:59;6.13;;;3.95;;
15112;SDS011;7657;50.140;7.076;2022-07-24T08:31:27;4.43;;;3.80;;
15112;SDS011;7657;50.140;7.076;2022-07-24T08:33:54;4.90;;;4.30;;
15112;SDS011;7657;50.140;7.076;2022-07-24T08:36:21;4.32;;;3.92;;
15112;SDS011;7657;50.140;7.076;2022-07-24T08:38:48;4.32;;;3.90;;
15112;SDS011;7657;50.140;7.076;2022-07-24T08:41:16;4.60;;;4.20;;
15112;SDS011;7657;50.140;7.076;2022-07-24T08:43:44;5.05;;;4.57;;
15112;SDS011;7657;50.140;7.076;2022-07-24T08:46:11;6.95;;;4.32;;
15112;SDS011;7657;50.140;7.076;2022-07-24T08:48:43;5.70;;;4.43;;
15112;SDS011;7657;50.140;7.076;2022-07-24T08:51:11;5.15;;;4.63;;
15112;SDS011;7657;50.140;7.076;2022-07-24T08:53:39;5.25;;;4.40;;
15112;SDS011;7657;50.140;7.076;2022-07-24T08:56:07;4.63;;;4.22;;
15112;SDS011;7657;50.140;7.076;2022-07-24T08:58:37;4.80;;;4.30;;
15112;SDS011;7657;50.140;7.076;2022-07-24T09:01:05;5.15;;;4.00;;
15112;SDS011;7657;50.140;7.076;2022-07-24T09:03:43;5.65;;;4.57;;
15112;SDS011;7657;50.140;7.076;2022-07-24T09:06:11;5.20;;;4.70;;
15112;SDS011;7657;50.140;7.076;2022-07-24T09:08:40;5.38;;;4.13;;
15112;SDS011;7657;50.140;7.076;2022-07-24T09:11:07;4.88;;;4.47;;
15112;SDS011;7657;50.140;7.076;2022-07-24T09:13:35;4.95;;;4.55;;
15112;SDS011;7657;50.140;7.076;2022-07-24T09:16:21;5.13;;;4.63;;
15112;SDS011;7657;50.140;7.076;2022-07-24T09:18:52;4.72;;;4.22;;
15112;SDS011;7657;50.140;7.076;2022-07-24T09:21:30;5.00;;;4.13;;
15112;SDS011;7657;50.140;7.076;2022-07-24T09:23:58;5.53;;;4.25;;
15112;SDS011;7657;50.140;7.076;2022-07-24T09:26:32;5.15;;;4.65;;
15112;SDS011;7657;50.140;7.076;2022-07-24T09:29:10;4.80;;;4.32;;
15112;SDS011;7657;50.140;7.076;2022-07-24T09:31:48;4.78;;;4.20;;
15112;SDS011;7657;50.140;7.076;2022-07-24T09:34:21;5.30;;;4.70;;
15112;SDS011;7657;50.140;7.076;2022-07-24T09:36:55;6.30;;;4.57;;
15112;SDS011;7657;50.140;7.076;2022-07-24T09:39:23;5.38;;;4.63;;
15112;SDS011;7657;50.140;7.076;2022-07-24T09:41:52;5.22;;;4.65;;
15112;SDS011;7657;50.140;7.076;2022-07-24T09:44:20;4.55;;;4.15;;
15112;SDS011;7657;50.140;7.076;2022-07-24T09:46:54;3.92;;;3.63;;
15112;SDS011;7657;50.140;7.076;2022-07-24T09:49:23;4.32;;;3.92;;
15112;SDS011;7657;50.140;7.076;2022-07-24T09:52:06;4.35;;;3.90;;
15112;SDS011;7657;50.140;7.076;2022-07-24T09:54:36;4.30;;;3.90;;
15112;SDS011;7657;50.140;7.076;2022-07-24T09:57:17;4.43;;;4.03;;
15112;SDS011;7657;50.140;7.076;2022-07-24T09:59:47;4.95;;;4.55;;
15112;SDS011;7657;50.140;7.076;2022-07-24T10:02:15;4.28;;;3.97;;
15112;SDS011;7657;50.140;7.076;2022-07-24T10:04:45;4.28;;;3.88;;
15112;SDS011;7657;50.140;7.076;2022-07-24T10:07:14;4.55;;;4.15;;
15112;SDS011;7657;50.140;7.076;2022-07-24T10:09:43;4.40;;;4.00;;
15112;SDS011;7657;50.140;7.076;2022-07-24T10:12:12;5.03;;;4.20;;
15112;SDS011;7657;50.140;7.076;2022-07-24T10:14:40;4.80;;;3.88;;
15112;SDS011;7657;50.140;7.076;2022-07-24T10:17:10;3.92;;;3.53;;
15112;SDS011;7657;50.140;7.076;2022-07-24T10:19:40;4.97;;;4.13;;
15112;SDS011;7657;50.140;7.076;2022-07-24T10:22:11;4.55;;;4.15;;
15112;SDS011;7657;50.140;7.076;2022-07-24T10:27:32;4.82;;;4.00;;
15112;SDS011;7657;50.140;7.076;2022-07-24T10:30:01;3.70;;;3.40;;
15112;SDS011;7657;50.140;7.076;2022-07-24T10:32:31;4.97;;;4.03;;
15112;SDS011;7657;50.140;7.076;2022-07-24T10:35:04;4.10;;;3.80;;
15112;SDS011;7657;50.140;7.076;2022-07-24T10:37:45;5.55;;;4.00;;
15112;SDS011;7657;50.140;7.076;2022-07-24T10:40:22;4.32;;;3.92;;
15112;SDS011;7657;50.140;7.076;2022-07-24T10:43:08;3.88;;;3.50;;
15112;SDS011;7657;50.140;7.076;2022-07-24T10:45:40;4.68;;;3.95;;
15112;SDS011;7657;50.140;7.076;2022-07-24T10:48:29;5.03;;;3.85;;
15112;SDS011;7657;50.140;7.076;2022-07-24T10:53:51;4.78;;;3.63;;
15112;SDS011;7657;50.140;7.076;2022-07-24T10:56:22;4.68;;;3.72;;
15112;SDS011;7657;50.140;7.076;2022-07-24T10:58:58;3.90;;;3.60;;
15112;SDS011;7657;50.140;7.076;2022-07-24T11:01:29;5.60;;;3.28;;
15112;SDS011;7657;50.140;7.076;2022-07-24T11:04:01;3.50;;;3.20;;
15112;SDS011;7657;50.140;7.076;2022-07-24T11:06:43;3.90;;;3.60;;
15112;SDS011;7657;50.140;7.076;2022-07-24T11:09:12;28.05;;;5.68;;
15112;SDS011;7657;50.140;7.076;2022-07-24T11:11:41;5.57;;;3.70;;
15112;SDS011;7657;50.140;7.076;2022-07-24T11:14:46;3.42;;;3.13;;
15112;SDS011;7657;50.140;7.076;2022-07-24T11:20:02;4.75;;;3.88;;
15112;SDS011;7657;50.140;7.076;2022-07-24T11:22:37;3.45;;;3.20;;
15112;SDS011;7657;50.140;7.076;2022-07-24T11:25:16;3.30;;;3.00;;
15112;SDS011;7657;50.140;7.076;2022-07-24T11:27:49;3.80;;;2.95;;
15112;SDS011;7657;50.140;7.076;2022-07-24T11:30:21;3.50;;;3.20;;
15112;SDS011;7657;50.140;7.076;2022-07-24T11:32:48;4.15;;;3.30;;
15112;SDS011;7657;50.140;7.076;2022-07-24T11:35:16;2.83;;;2.63;;
15112;SDS011;7657;50.140;7.076;2022-07-24T11:37:43;3.13;;;2.83;;
15112;SDS011;7657;50.140;7.076;2022-07-24T11:40:15;4.28;;;3.47;;
15112;SDS011;7657;50.140;7.076;2022-07-24T11:42:43;3.17;;;2.97;;
15112;SDS011;7657;50.140;7.076;2022-07-24T11:45:10;3.42;;;3.10;;
15112;SDS011;7657;50.140;7.076;2022-07-24T11:47:37;3.78;;;3.28;;
15112;SDS011;7657;50.140;7.076;2022-07-24T11:50:05;4.82;;;3.42;;
15112;SDS011;7657;50.140;7.076;2022-07-24T11:52:35;3.47;;;3.08;;
15112;SDS011;7657;50.140;7.076;2022-07-24T11:55:04;4.03;;;3.20;;
15112;SDS011;7657;50.140;7.076;2022-07-24T11:57:35;3.50;;;3.20;;
15112;SDS011;7657;50.140;7.076;2022-07-24T12:00:03;3.50;;;3.20;;
15112;SDS011;7657;50.140;7.076;2022-07-24T12:02:34;3.08;;;2.72;;
15112;SDS011;7657;50.140;7.076;2022-07-24T12:05:01;2.60;;;2.40;;
15112;SDS011;7657;50.140;7.076;2022-07-24T12:07:28;4.60;;;3.22;;
15112;SDS011;7657;50.140;7.076;2022-07-24T12:09:57;3.00;;;2.80;;
15112;SDS011;7657;50.140;7.076;2022-07-24T12:12:26;2.80;;;2.60;;
15112;SDS011;7657;50.140;7.076;2022-07-24T12:15:01;3.88;;;3.03;;
15112;SDS011;7657;50.140;7.076;2022-07-24T12:17:30;3.17;;;2.85;;
15112;SDS011;7657;50.140;7.076;2022-07-24T12:19:58;2.95;;;2.70;;
15112;SDS011;7657;50.140;7.076;2022-07-24T12:22:27;3.08;;;2.78;;
15112;SDS011;7657;50.140;7.076;2022-07-24T12:24:56;3.17;;;2.85;;
15112;SDS011;7657;50.140;7.076;2022-07-24T12:27:31;4.00;;;2.60;;
15112;SDS011;7657;50.140;7.076;2022-07-24T12:30:00;3.72;;;2.90;;
15112;SDS011;7657;50.140;7.076;2022-07-24T12:32:29;3.63;;;3.00;;
15112;SDS011;7657;50.140;7.076;2022-07-24T12:34:55;2.85;;;2.65;;
15112;SDS011;7657;50.140;7.076;2022-07-24T12:37:22;3.83;;;3.03;;
15112;SDS011;7657;50.140;7.076;2022-07-24T12:39:50;3.53;;;3.22;;
15112;SDS011;7657;50.140;7.076;2022-07-24T12:42:18;3.38;;;3.08;;
15112;SDS011;7657;50.140;7.076;2022-07-24T12:45:04;3.00;;;2.80;;
15112;SDS011;7657;50.140;7.076;2022-07-24T12:47:35;2.95;;;2.75;;
15112;SDS011;7657;50.140;7.076;2022-07-24T12:50:58;3.38;;;3.08;;
15112;SDS011;7657;50.140;7.076;2022-07-24T12:53:43;3.80;;;3.42;;
15112;SDS011;7657;50.140;7.076;2022-07-24T12:56:11;3.05;;;2.83;;
15112;SDS011;7657;50.140;7.076;2022-07-24T12:58:51;2.88;;;2.67;;
15112;SDS011;7657;50.140;7.076;2022-07-24T13:01:25;3.85;;;3.08;;
15112;SDS011;7657;50.140;7.076;2022-07-24T13:03:55;3.00;;;2.80;;
15112;SDS011;7657;50.140;7.076;2022-07-24T13:06:37;3.00;;;2.70;;
15112;SDS011;7657;50.140;7.076;2022-07-24T13:09:07;2.88;;;2.67;;
15112;SDS011;7657;50.140;7.076;2022-07-24T13:11:35;3.10;;;2.90;;
15112;SDS011;7657;50.140;7.076;2022-07-24T13:14:02;2.58;;;2.38;;
15112;SDS011;7657;50.140;7.076;2022-07-24T13:16:33;3.05;;;2.78;;
15112;SDS011;7657;50.140;7.076;2022-07-24T13:19:01;2.70;;;2.50;;
15112;SDS011;7657;50.140;7.076;2022-07-24T13:21:29;3.95;;;2.92;;
15112;SDS011;7657;50.140;7.076;2022-07-24T13:23:57;3.90;;;2.80;;
15112;SDS011;7657;50.140;7.076;2022-07-24T13:26:24;2.97;;;2.60;;
15112;SDS011;7657;50.140;7.076;2022-07-24T13:28:51;2.53;;;2.30;;
15112;SDS011;7657;50.140;7.076;2022-07-24T13:31:18;2.90;;;2.55;;
15112;SDS011;7657;50.140;7.076;2022-07-24T13:33:47;2.35;;;2.25;;
15112;SDS011;7657;50.140;7.076;2022-07-24T13:36:14;2.65;;;2.45;;
15112;SDS011;7657;50.140;7.076;2022-07-24T13:38:42;2.30;;;2.10;;
15112;SDS011;7657;50.140;7.076;2022-07-24T13:41:09;2.70;;;2.50;;
15112;SDS011;7657;50.140;7.076;2022-07-24T13:43:37;3.20;;;3.00;;
15112;SDS011;7657;50.140;7.076;2022-07-24T13:46:04;2.60;;;2.40;;
15112;SDS011;7657;50.140;7.076;2022-07-24T13:48:31;3.40;;;2.55;;
15112;SDS011;7657;50.140;7.076;2022-07-24T13:51:00;2.70;;;2.50;;
15112;SDS011;7657;50.140;7.076;2022-07-24T13:53:26;2.72;;;2.55;;
15112;SDS011;7657;50.140;7.076;2022-07-24T13:55:53;2.58;;;2.45;;
15112;SDS011;7657;50.140;7.076;2022-07-24T13:58:20;2.30;;;2.20;;
15112;SDS011;7657;50.140;7.076;2022-07-24T14:00:47;2.78;;;2.58;;
15112;SDS011;7657;50.140;7.076;2022-07-24T14:03:14;2.92;;;2.72;;
15112;SDS011;7657;50.140;7.076;2022-07-24T14:05:41;2.60;;;2.40;;
15112;SDS011;7657;50.140;7.076;2022-07-24T14:08:10;2.80;;;2.60;;
15112;SDS011;7657;50.140;7.076;2022-07-24T14:10:37;2.33;;;2.22;;
15112;SDS011;7657;50.140;7.076;2022-07-24T14:13:04;5.00;;;4.50;;
15112;SDS011;7657;50.140;7.076;2022-07-24T14:15:30;2.75;;;2.55;;
15112;SDS011;7657;50.140;7.076;2022-07-24T14:17:57;3.00;;;2.80;;
15112;SDS011;7657;50.140;7.076;2022-07-24T14:20:25;3.05;;;2.85;;
15112;SDS011;7657;50.140;7.076;2022-07-24T14:22:51;2.75;;;2.55;;
15112;SDS011;7657;50.140;7.076;2022-07-24T14:25:20;2.67;;;2.47;;
15112;SDS011;7657;50.140;7.076;2022-07-24T14:27:47;2.70;;;2.50;;
15112;SDS011;7657;50.140;7.076;2022-07-24T14:30:14;3.00;;;2.65;;
15112;SDS011;7657;50.140;7.076;2022-07-24T14:32:41;2.65;;;2.45;;
15112;SDS011;7657;50.140;7.076;2022-07-24T14:35:08;3.10;;;2.50;;
15112;SDS011;7657;50.140;7.076;2022-07-24T14:37:36;3.00;;;2.80;;
15112;SDS011;7657;50.140;7.076;2022-07-24T14:40:05;3.00;;;2.80;;
15112;SDS011;7657;50.140;7.076;2022-07-24T14:42:35;3.15;;;2.90;;
15112;SDS011;7657;50.140;7.076;2022-07-24T14:45:02;2.72;;;2.40;;
15112;SDS011;7657;50.140;7.076;2022-07-24T14:47:30;2.95;;;2.75;;
15112;SDS011;7657;50.140;7.076;2022-07-24T14:49:58;2.63;;;2.42;;
15112;SDS011;7657;50.140;7.076;2022-07-24T14:52:25;2.83;;;2.63;;
15112;SDS011;7657;50.140;7.076;2022-07-24T14:54:51;5.68;;;5.18;;
15112;SDS011;7657;50.140;7.076;2022-07-24T14:57:18;3.53;;;3.22;;
15112;SDS011;7657;50.140;7.076;2022-07-24T14:59:47;3.13;;;2.85;;
15112;SDS011;7657;50.140;7.076;2022-07-24T15:02:14;2.60;;;2.40;;
15112;SDS011;7657;50.140;7.076;2022-07-24T15:04:41;2.90;;;2.80;;
15112;SDS011;7657;50.140;7.076;2022-07-24T15:07:08;3.55;;;3.25;;
15112;SDS011;7657;50.140;7.076;2022-07-24T15:09:35;3.17;;;2.90;;
15112;SDS011;7657;50.140;7.076;2022-07-24T15:12:03;3.30;;;3.00;;
15112;SDS011;7657;50.140;7.076;2022-07-24T15:14:30;3.15;;;2.67;;
15112;SDS011;7657;50.140;7.076;2022-07-24T15:16:59;3.35;;;2.85;;